Terminal Aerodrome Forecast
Issued by NWS Greer, SC

Home | Current Version | Previous Version | Text Only | Print | Product List | Glossary On
Versions: 1 2 3 4 5 6 7 8 9 10 11 12 13 14 15 16 17 18 19 20 21
000
FTUS42 KGSP 301300 AAB
TAFGSP
TAF AMD
KGSP 301312Z 3013/0112 00000KT P6SM FEW006
     FM301400 01003KT P6SM FEW050
     FM301700 06003KT P6SM FEW050
     FM302000 15003KT P6SM FEW050
     FM010000 21003KT P6SM FEW050
     FM010700 00000KT 4SM BR FEW250=

USA.gov is the U.S. government's official web portal to all federal, state and local government web resources and services.